sensor_id;sensor_type;location;lat;lon;timestamp;P1;durP1;ratioP1;P2;durP2;ratioP2
40649;SDS011;26342;42.826;23.992;2022-11-18T00:01:09;1.98;;;1.23;;
40649;SDS011;26342;42.826;23.992;2022-11-18T00:03:46;7.57;;;2.00;;
40649;SDS011;26342;42.826;23.992;2022-11-18T00:06:16;5.57;;;2.33;;
40649;SDS011;26342;42.826;23.992;2022-11-18T00:08:46;5.72;;;2.30;;
40649;SDS011;26342;42.826;23.992;2022-11-18T00:11:22;4.10;;;2.28;;
40649;SDS011;26342;42.826;23.992;2022-11-18T00:14:15;1.08;;;0.95;;
40649;SDS011;26342;42.826;23.992;2022-11-18T00:17:05;5.05;;;2.20;;
40649;SDS011;26342;42.826;23.992;2022-11-18T00:19:31;2.22;;;1.88;;
40649;SDS011;26342;42.826;23.992;2022-11-18T00:21:59;1.65;;;1.48;;
40649;SDS011;26342;42.826;23.992;2022-11-18T00:24:25;4.63;;;2.35;;
40649;SDS011;26342;42.826;23.992;2022-11-18T00:26:51;6.85;;;3.05;;
40649;SDS011;26342;42.826;23.992;2022-11-18T00:29:17;5.82;;;2.50;;
40649;SDS011;26342;42.826;23.992;2022-11-18T00:31:43;4.53;;;3.42;;
40649;SDS011;26342;42.826;23.992;2022-11-18T00:34:12;7.25;;;3.55;;
40649;SDS011;26342;42.826;23.992;2022-11-18T00:36:40;2.28;;;2.05;;
40649;SDS011;26342;42.826;23.992;2022-11-18T00:39:06;2.67;;;2.25;;
40649;SDS011;26342;42.826;23.992;2022-11-18T00:41:32;2.42;;;1.85;;
40649;SDS011;26342;42.826;23.992;2022-11-18T00:44:16;1.88;;;1.30;;
40649;SDS011;26342;42.826;23.992;2022-11-18T00:46:41;4.15;;;2.85;;
40649;SDS011;26342;42.826;23.992;2022-11-18T00:49:07;2.63;;;1.67;;
40649;SDS011;26342;42.826;23.992;2022-11-18T00:51:33;2.15;;;1.90;;
40649;SDS011;26342;42.826;23.992;2022-11-18T00:53:59;2.47;;;1.92;;
40649;SDS011;26342;42.826;23.992;2022-11-18T00:56:24;2.50;;;2.15;;
40649;SDS011;26342;42.826;23.992;2022-11-18T00:58:49;1.33;;;1.25;;
40649;SDS011;26342;42.826;23.992;2022-11-18T01:01:15;2.42;;;1.73;;
40649;SDS011;26342;42.826;23.992;2022-11-18T01:03:40;2.33;;;1.35;;
40649;SDS011;26342;42.826;23.992;2022-11-18T01:06:06;2.08;;;1.50;;
40649;SDS011;26342;42.826;23.992;2022-11-18T01:08:31;4.13;;;3.28;;
40649;SDS011;26342;42.826;23.992;2022-11-18T01:10:56;2.47;;;2.22;;
40649;SDS011;26342;42.826;23.992;2022-11-18T01:13:42;1.65;;;1.55;;
40649;SDS011;26342;42.826;23.992;2022-11-18T01:16:07;2.75;;;2.55;;
40649;SDS011;26342;42.826;23.992;2022-11-18T01:18:32;2.28;;;1.17;;
40649;SDS011;26342;42.826;23.992;2022-11-18T01:21:01;4.70;;;2.85;;
40649;SDS011;26342;42.826;23.992;2022-11-18T01:23:27;5.82;;;2.30;;
40649;SDS011;26342;42.826;23.992;2022-11-18T01:25:53;2.45;;;1.33;;
40649;SDS011;26342;42.826;23.992;2022-11-18T01:28:19;3.38;;;1.90;;
40649;SDS011;26342;42.826;23.992;2022-11-18T01:30:44;4.72;;;1.92;;
40649;SDS011;26342;42.826;23.992;2022-11-18T01:33:10;4.32;;;2.08;;
40649;SDS011;26342;42.826;23.992;2022-11-18T01:35:40;2.28;;;1.92;;
40649;SDS011;26342;42.826;23.992;2022-11-18T01:38:07;9.02;;;2.40;;
40649;SDS011;26342;42.826;23.992;2022-11-18T01:40:35;1.20;;;1.10;;
40649;SDS011;26342;42.826;23.992;2022-11-18T01:43:00;1.98;;;1.83;;
40649;SDS011;26342;42.826;23.992;2022-11-18T01:45:33;5.45;;;2.90;;
40649;SDS011;26342;42.826;23.992;2022-11-18T01:50:59;3.83;;;1.92;;
40649;SDS011;26342;42.826;23.992;2022-11-18T01:53:33;3.00;;;2.70;;
40649;SDS011;26342;42.826;23.992;2022-11-18T01:56:02;3.50;;;1.55;;
40649;SDS011;26342;42.826;23.992;2022-11-18T01:58:36;2.42;;;2.22;;
40649;SDS011;26342;42.826;23.992;2022-11-18T02:01:05;2.45;;;1.98;;
40649;SDS011;26342;42.826;23.992;2022-11-18T02:03:32;2.97;;;1.50;;
40649;SDS011;26342;42.826;23.992;2022-11-18T02:05:58;1.27;;;1.17;;
40649;SDS011;26342;42.826;23.992;2022-11-18T02:08:26;3.10;;;2.00;;
40649;SDS011;26342;42.826;23.992;2022-11-18T02:10:54;2.17;;;1.65;;
40649;SDS011;26342;42.826;23.992;2022-11-18T02:13:19;3.70;;;2.03;;
40649;SDS011;26342;42.826;23.992;2022-11-18T02:21:11;2.10;;;1.58;;
40649;SDS011;26342;42.826;23.992;2022-11-18T02:26:49;0.45;;;0.45;;
40649;SDS011;26342;42.826;23.992;2022-11-18T02:30:04;1.30;;;1.20;;
40649;SDS011;26342;42.826;23.992;2022-11-18T02:32:33;2.42;;;1.25;;
40649;SDS011;26342;42.826;23.992;2022-11-18T02:40:51;1.45;;;1.27;;
40649;SDS011;26342;42.826;23.992;2022-11-18T02:43:25;1.67;;;0.77;;
40649;SDS011;26342;42.826;23.992;2022-11-18T02:45:55;2.17;;;2.00;;
40649;SDS011;26342;42.826;23.992;2022-11-18T02:48:25;1.63;;;1.50;;
40649;SDS011;26342;42.826;23.992;2022-11-18T02:50:55;3.08;;;1.83;;
40649;SDS011;26342;42.826;23.992;2022-11-18T02:53:22;7.07;;;1.20;;
40649;SDS011;26342;42.826;23.992;2022-11-18T02:55:49;6.93;;;1.40;;
40649;SDS011;26342;42.826;23.992;2022-11-18T02:58:17;1.95;;;1.73;;
40649;SDS011;26342;42.826;23.992;2022-11-18T03:00:51;2.42;;;1.58;;
40649;SDS011;26342;42.826;23.992;2022-11-18T03:03:31;10.27;;;2.92;;
40649;SDS011;26342;42.826;23.992;2022-11-18T03:16:44;5.05;;;3.20;;
40649;SDS011;26342;42.826;23.992;2022-11-18T03:21:46;4.30;;;2.25;;
40649;SDS011;26342;42.826;23.992;2022-11-18T03:24:29;13.50;;;4.40;;
40649;SDS011;26342;42.826;23.992;2022-11-18T03:27:05;6.10;;;3.40;;
40649;SDS011;26342;42.826;23.992;2022-11-18T03:29:53;7.55;;;2.88;;
40649;SDS011;26342;42.826;23.992;2022-11-18T03:32:28;5.72;;;2.15;;
40649;SDS011;26342;42.826;23.992;2022-11-18T03:35:01;7.15;;;3.55;;
40649;SDS011;26342;42.826;23.992;2022-11-18T03:37:32;7.38;;;3.95;;
40649;SDS011;26342;42.826;23.992;2022-11-18T03:40:03;5.07;;;2.25;;
40649;SDS011;26342;42.826;23.992;2022-11-18T03:42:41;5.18;;;2.63;;
40649;SDS011;26342;42.826;23.992;2022-11-18T03:45:16;5.45;;;3.08;;
40649;SDS011;26342;42.826;23.992;2022-11-18T03:47:47;5.60;;;3.13;;
40649;SDS011;26342;42.826;23.992;2022-11-18T03:50:20;14.52;;;4.85;;
40649;SDS011;26342;42.826;23.992;2022-11-18T03:52:50;11.85;;;6.85;;
40649;SDS011;26342;42.826;23.992;2022-11-18T03:55:20;3.53;;;3.22;;
40649;SDS011;26342;42.826;23.992;2022-11-18T03:57:56;4.75;;;2.55;;
40649;SDS011;26342;42.826;23.992;2022-11-18T04:00:24;4.60;;;3.28;;
40649;SDS011;26342;42.826;23.992;2022-11-18T04:02:56;4.80;;;3.78;;
40649;SDS011;26342;42.826;23.992;2022-11-18T04:05:22;5.32;;;3.65;;
40649;SDS011;26342;42.826;23.992;2022-11-18T04:07:49;3.25;;;2.95;;
40649;SDS011;26342;42.826;23.992;2022-11-18T04:10:26;1.90;;;1.80;;
40649;SDS011;26342;42.826;23.992;2022-11-18T04:15:42;3.30;;;1.90;;
40649;SDS011;26342;42.826;23.992;2022-11-18T04:18:08;3.58;;;2.20;;
40649;SDS011;26342;42.826;23.992;2022-11-18T04:20:34;3.08;;;1.83;;
40649;SDS011;26342;42.826;23.992;2022-11-18T04:23:01;3.90;;;1.85;;
40649;SDS011;26342;42.826;23.992;2022-11-18T04:25:28;8.45;;;1.73;;
40649;SDS011;26342;42.826;23.992;2022-11-18T04:27:53;3.33;;;2.78;;
40649;SDS011;26342;42.826;23.992;2022-11-18T04:30:19;3.33;;;1.52;;
40649;SDS011;26342;42.826;23.992;2022-11-18T04:32:45;5.85;;;2.38;;
40649;SDS011;26342;42.826;23.992;2022-11-18T04:35:11;10.75;;;5.47;;
40649;SDS011;26342;42.826;23.992;2022-11-18T04:37:36;11.10;;;4.28;;
40649;SDS011;26342;42.826;23.992;2022-11-18T04:40:02;4.88;;;3.50;;
40649;SDS011;26342;42.826;23.992;2022-11-18T04:42:28;3.20;;;1.90;;
40649;SDS011;26342;42.826;23.992;2022-11-18T04:44:54;3.85;;;2.70;;
40649;SDS011;26342;42.826;23.992;2022-11-18T04:47:19;3.03;;;1.88;;
40649;SDS011;26342;42.826;23.992;2022-11-18T04:49:45;2.38;;;1.90;;
40649;SDS011;26342;42.826;23.992;2022-11-18T04:52:10;1.08;;;0.90;;
40649;SDS011;26342;42.826;23.992;2022-11-18T04:54:36;9.18;;;2.92;;
40649;SDS011;26342;42.826;23.992;2022-11-18T04:57:02;2.97;;;2.00;;
40649;SDS011;26342;42.826;23.992;2022-11-18T04:59:28;4.13;;;3.70;;
40649;SDS011;26342;42.826;23.992;2022-11-18T05:01:54;2.97;;;2.17;;
40649;SDS011;26342;42.826;23.992;2022-11-18T05:04:24;9.57;;;4.20;;
40649;SDS011;26342;42.826;23.992;2022-11-18T05:06:51;3.53;;;2.70;;
40649;SDS011;26342;42.826;23.992;2022-11-18T05:09:17;7.93;;;3.22;;
40649;SDS011;26342;42.826;23.992;2022-11-18T05:11:43;3.17;;;2.47;;
40649;SDS011;26342;42.826;23.992;2022-11-18T05:14:28;3.95;;;2.80;;
40649;SDS011;26342;42.826;23.992;2022-11-18T05:16:54;8.90;;;4.40;;
40649;SDS011;26342;42.826;23.992;2022-11-18T05:19:21;9.43;;;6.07;;
40649;SDS011;26342;42.826;23.992;2022-11-18T05:21:46;3.83;;;3.40;;
40649;SDS011;26342;42.826;23.992;2022-11-18T05:24:12;4.43;;;3.38;;
40649;SDS011;26342;42.826;23.992;2022-11-18T05:26:37;2.17;;;2.00;;
40649;SDS011;26342;42.826;23.992;2022-11-18T05:29:03;2.15;;;1.98;;
40649;SDS011;26342;42.826;23.992;2022-11-18T05:31:28;7.75;;;1.52;;
40649;SDS011;26342;42.826;23.992;2022-11-18T05:33:54;1.38;;;1.25;;
40649;SDS011;26342;42.826;23.992;2022-11-18T05:36:20;2.67;;;2.47;;
40649;SDS011;26342;42.826;23.992;2022-11-18T05:38:46;6.07;;;3.53;;
40649;SDS011;26342;42.826;23.992;2022-11-18T05:41:12;1.83;;;1.67;;
40649;SDS011;26342;42.826;23.992;2022-11-18T05:43:58;7.28;;;3.80;;
40649;SDS011;26342;42.826;23.992;2022-11-18T05:46:23;4.50;;;3.90;;
40649;SDS011;26342;42.826;23.992;2022-11-18T05:48:49;14.05;;;4.20;;
40649;SDS011;26342;42.826;23.992;2022-11-18T05:51:16;10.07;;;2.55;;
40649;SDS011;26342;42.826;23.992;2022-11-18T05:53:41;6.00;;;2.92;;
40649;SDS011;26342;42.826;23.992;2022-11-18T05:58:41;2.63;;;2.42;;
40649;SDS011;26342;42.826;23.992;2022-11-18T06:01:07;5.43;;;3.15;;
40649;SDS011;26342;42.826;23.992;2022-11-18T06:03:34;5.50;;;3.20;;
40649;SDS011;26342;42.826;23.992;2022-11-18T06:06:02;4.10;;;3.67;;
40649;SDS011;26342;42.826;23.992;2022-11-18T06:08:31;10.43;;;5.18;;
40649;SDS011;26342;42.826;23.992;2022-11-18T06:10:59;5.90;;;4.88;;
40649;SDS011;26342;42.826;23.992;2022-11-18T06:13:27;9.23;;;5.25;;
40649;SDS011;26342;42.826;23.992;2022-11-18T06:15:55;9.15;;;5.30;;
40649;SDS011;26342;42.826;23.992;2022-11-18T06:18:28;6.97;;;4.78;;
40649;SDS011;26342;42.826;23.992;2022-11-18T06:21:02;4.90;;;4.40;;
40649;SDS011;26342;42.826;23.992;2022-11-18T06:23:30;5.13;;;4.03;;
40649;SDS011;26342;42.826;23.992;2022-11-18T06:25:59;15.32;;;5.70;;
40649;SDS011;26342;42.826;23.992;2022-11-18T06:28:25;12.35;;;6.38;;
40649;SDS011;26342;42.826;23.992;2022-11-18T06:30:51;17.83;;;6.82;;
40649;SDS011;26342;42.826;23.992;2022-11-18T06:33:17;9.88;;;5.70;;
40649;SDS011;26342;42.826;23.992;2022-11-18T06:35:42;6.10;;;4.57;;
40649;SDS011;26342;42.826;23.992;2022-11-18T06:38:08;13.88;;;7.05;;
40649;SDS011;26342;42.826;23.992;2022-11-18T06:40:33;15.07;;;9.43;;
40649;SDS011;26342;42.826;23.992;2022-11-18T06:43:07;25.23;;;9.82;;
40649;SDS011;26342;42.826;23.992;2022-11-18T06:45:56;15.20;;;8.05;;
40649;SDS011;26342;42.826;23.992;2022-11-18T06:48:44;14.15;;;8.15;;
40649;SDS011;26342;42.826;23.992;2022-11-18T06:51:09;14.80;;;7.60;;
40649;SDS011;26342;42.826;23.992;2022-11-18T06:53:35;16.95;;;10.85;;
40649;SDS011;26342;42.826;23.992;2022-11-18T06:56:04;10.75;;;7.97;;
40649;SDS011;26342;42.826;23.992;2022-11-18T06:58:31;12.88;;;7.97;;
40649;SDS011;26342;42.826;23.992;2022-11-18T07:00:56;13.20;;;8.00;;
40649;SDS011;26342;42.826;23.992;2022-11-18T07:03:22;12.27;;;8.45;;
40649;SDS011;26342;42.826;23.992;2022-11-18T07:05:47;14.05;;;10.02;;
40649;SDS011;26342;42.826;23.992;2022-11-18T07:08:12;19.90;;;10.20;;
40649;SDS011;26342;42.826;23.992;2022-11-18T07:10:38;19.33;;;11.15;;
40649;SDS011;26342;42.826;23.992;2022-11-18T07:13:03;27.40;;;14.63;;
40649;SDS011;26342;42.826;23.992;2022-11-18T07:15:28;26.63;;;14.10;;
40649;SDS011;26342;42.826;23.992;2022-11-18T07:17:54;18.75;;;12.15;;
40649;SDS011;26342;42.826;23.992;2022-11-18T07:20:19;13.02;;;10.02;;
40649;SDS011;26342;42.826;23.992;2022-11-18T07:22:45;29.20;;;18.83;;
40649;SDS011;26342;42.826;23.992;2022-11-18T07:25:10;31.35;;;14.95;;
40649;SDS011;26342;42.826;23.992;2022-11-18T07:27:35;18.42;;;13.70;;
40649;SDS011;26342;42.826;23.992;2022-11-18T07:30:01;24.80;;;13.70;;
40649;SDS011;26342;42.826;23.992;2022-11-18T07:32:26;21.60;;;12.82;;
40649;SDS011;26342;42.826;23.992;2022-11-18T07:34:51;27.90;;;17.35;;
40649;SDS011;26342;42.826;23.992;2022-11-18T07:37:17;34.22;;;19.63;;
40649;SDS011;26342;42.826;23.992;2022-11-18T07:39:42;25.30;;;16.85;;
40649;SDS011;26342;42.826;23.992;2022-11-18T07:42:08;18.45;;;14.80;;
40649;SDS011;26342;42.826;23.992;2022-11-18T07:44:33;29.38;;;13.40;;
40649;SDS011;26342;42.826;23.992;2022-11-18T07:46:59;21.75;;;11.27;;
40649;SDS011;26342;42.826;23.992;2022-11-18T07:49:24;35.97;;;15.68;;
40649;SDS011;26342;42.826;23.992;2022-11-18T07:51:50;28.20;;;12.43;;
40649;SDS011;26342;42.826;23.992;2022-11-18T07:54:15;18.23;;;9.05;;
40649;SDS011;26342;42.826;23.992;2022-11-18T07:56:41;16.90;;;7.57;;
40649;SDS011;26342;42.826;23.992;2022-11-18T07:59:07;11.65;;;7.32;;
40649;SDS011;26342;42.826;23.992;2022-11-18T08:01:32;10.00;;;5.75;;
40649;SDS011;26342;42.826;23.992;2022-11-18T08:04:05;6.65;;;4.80;;
40649;SDS011;26342;42.826;23.992;2022-11-18T08:06:32;9.80;;;5.90;;
40649;SDS011;26342;42.826;23.992;2022-11-18T08:08:58;6.43;;;3.03;;
40649;SDS011;26342;42.826;23.992;2022-11-18T08:11:24;8.05;;;4.40;;
40649;SDS011;26342;42.826;23.992;2022-11-18T08:13:52;5.28;;;3.90;;
40649;SDS011;26342;42.826;23.992;2022-11-18T08:16:19;4.05;;;3.65;;
40649;SDS011;26342;42.826;23.992;2022-11-18T08:18:46;7.75;;;5.28;;
40649;SDS011;26342;42.826;23.992;2022-11-18T08:21:12;9.55;;;5.50;;
40649;SDS011;26342;42.826;23.992;2022-11-18T08:23:38;5.25;;;4.00;;
40649;SDS011;26342;42.826;23.992;2022-11-18T08:26:05;4.68;;;3.00;;
40649;SDS011;26342;42.826;23.992;2022-11-18T08:28:33;2.42;;;1.95;;
40649;SDS011;26342;42.826;23.992;2022-11-18T08:30:59;13.10;;;4.78;;
40649;SDS011;26342;42.826;23.992;2022-11-18T08:33:24;11.75;;;5.90;;
40649;SDS011;26342;42.826;23.992;2022-11-18T08:35:50;3.40;;;1.15;;
40649;SDS011;26342;42.826;23.992;2022-11-18T08:38:16;0.88;;;0.80;;
40649;SDS011;26342;42.826;23.992;2022-11-18T08:40:42;0.10;;;0.10;;
40649;SDS011;26342;42.826;23.992;2022-11-18T08:43:10;0.30;;;0.30;;
40649;SDS011;26342;42.826;23.992;2022-11-18T08:45:37;0.55;;;0.55;;
40649;SDS011;26342;42.826;23.992;2022-11-18T08:48:03;0.70;;;0.40;;
40649;SDS011;26342;42.826;23.992;2022-11-18T08:50:28;0.38;;;0.30;;
40649;SDS011;26342;42.826;23.992;2022-11-18T08:52:54;3.05;;;0.30;;
40649;SDS011;26342;42.826;23.992;2022-11-18T08:55:19;0.63;;;0.63;;
40649;SDS011;26342;42.826;23.992;2022-11-18T08:57:45;0.40;;;0.40;;
40649;SDS011;26342;42.826;23.992;2022-11-18T09:00:12;1.27;;;0.68;;
40649;SDS011;26342;42.826;23.992;2022-11-18T09:02:38;2.72;;;0.88;;
40649;SDS011;26342;42.826;23.992;2022-11-18T09:05:03;0.28;;;0.28;;
40649;SDS011;26342;42.826;23.992;2022-11-18T09:07:29;0.57;;;0.17;;
40649;SDS011;26342;42.826;23.992;2022-11-18T09:09:54;0.28;;;0.28;;
40649;SDS011;26342;42.826;23.992;2022-11-18T09:12:20;0.35;;;0.35;;
40649;SDS011;26342;42.826;23.992;2022-11-18T09:14:45;0.30;;;0.30;;
40649;SDS011;26342;42.826;23.992;2022-11-18T09:17:11;0.10;;;0.10;;
40649;SDS011;26342;42.826;23.992;2022-11-18T09:19:36;0.52;;;0.52;;
40649;SDS011;26342;42.826;23.992;2022-11-18T09:22:02;2.05;;;0.95;;
40649;SDS011;26342;42.826;23.992;2022-11-18T09:24:28;0.28;;;0.20;;
40649;SDS011;26342;42.826;23.992;2022-11-18T09:26:54;4.35;;;0.88;;
40649;SDS011;26342;42.826;23.992;2022-11-18T09:29:19;0.90;;;0.45;;
40649;SDS011;26342;42.826;23.992;2022-11-18T09:31:49;0.50;;;0.38;;
40649;SDS011;26342;42.826;23.992;2022-11-18T09:34:15;0.20;;;0.10;;
40649;SDS011;26342;42.826;23.992;2022-11-18T09:36:40;0.10;;;0.10;;
40649;SDS011;26342;42.826;23.992;2022-11-18T09:39:05;1.98;;;0.50;;
40649;SDS011;26342;42.826;23.992;2022-11-18T09:49:51;0.47;;;0.38;;
40649;SDS011;26342;42.826;23.992;2022-11-18T09:54:47;3.13;;;1.05;;
40649;SDS011;26342;42.826;23.992;2022-11-18T09:57:20;0.30;;;0.30;;
40649;SDS011;26342;42.826;23.992;2022-11-18T09:59:48;0.17;;;0.17;;
40649;SDS011;26342;42.826;23.992;2022-11-18T10:02:28;1.38;;;0.50;;
40649;SDS011;26342;42.826;23.992;2022-11-18T10:04:55;0.68;;;0.47;;
40649;SDS011;26342;42.826;23.992;2022-11-18T10:07:36;0.20;;;0.20;;
40649;SDS011;26342;42.826;23.992;2022-11-18T10:10:11;0.13;;;0.13;;
40649;SDS011;26342;42.826;23.992;2022-11-18T10:12:48;1.92;;;0.25;;
40649;SDS011;26342;42.826;23.992;2022-11-18T10:20:55;0.00;;;0.00;;
40649;SDS011;26342;42.826;23.992;2022-11-18T10:23:34;0.00;;;0.00;;
40649;SDS011;26342;42.826;23.992;2022-11-18T10:26:32;0.70;;;0.45;;
40649;SDS011;26342;42.826;23.992;2022-11-18T10:29:03;0.10;;;0.10;;
40649;SDS011;26342;42.826;23.992;2022-11-18T10:31:35;0.25;;;0.10;;
40649;SDS011;26342;42.826;23.992;2022-11-18T10:34:04;0.10;;;0.10;;
40649;SDS011;26342;42.826;23.992;2022-11-18T10:36:31;1.17;;;0.55;;
40649;SDS011;26342;42.826;23.992;2022-11-18T10:39:20;0.73;;;0.60;;
40649;SDS011;26342;42.826;23.992;2022-11-18T10:41:46;2.30;;;0.85;;
40649;SDS011;26342;42.826;23.992;2022-11-18T10:44:26;0.52;;;0.45;;
40649;SDS011;26342;42.826;23.992;2022-11-18T10:46:54;0.38;;;0.38;;
40649;SDS011;26342;42.826;23.992;2022-11-18T10:49:20;0.20;;;0.20;;
40649;SDS011;26342;42.826;23.992;2022-11-18T10:54:33;0.30;;;0.30;;
40649;SDS011;26342;42.826;23.992;2022-11-18T10:57:02;1.42;;;0.68;;
40649;SDS011;26342;42.826;23.992;2022-11-18T11:04:41;0.30;;;0.30;;
40649;SDS011;26342;42.826;23.992;2022-11-18T11:07:16;0.38;;;0.25;;
40649;SDS011;26342;42.826;23.992;2022-11-18T11:12:31;0.10;;;0.10;;
40649;SDS011;26342;42.826;23.992;2022-11-18T11:15:57;0.40;;;0.35;;
40649;SDS011;26342;42.826;23.992;2022-11-18T11:18:09;0.38;;;0.30;;
40649;SDS011;26342;42.826;23.992;2022-11-18T11:20:57;1.38;;;0.85;;
40649;SDS011;26342;42.826;23.992;2022-11-18T11:23:22;2.03;;;1.52;;
40649;SDS011;26342;42.826;23.992;2022-11-18T11:25:59;0.45;;;0.40;;
40649;SDS011;26342;42.826;23.992;2022-11-18T11:34:04;0.30;;;0.30;;
40649;SDS011;26342;42.826;23.992;2022-11-18T11:41:46;0.25;;;0.22;;
40649;SDS011;26342;42.826;23.992;2022-11-18T11:50:00;0.20;;;0.20;;
40649;SDS011;26342;42.826;23.992;2022-11-18T11:55:27;0.00;;;0.00;;
40649;SDS011;26342;42.826;23.992;2022-11-18T12:00:39;0.43;;;0.43;;
40649;SDS011;26342;42.826;23.992;2022-11-18T12:05:37;0.20;;;0.20;;
40649;SDS011;26342;42.826;23.992;2022-11-18T12:18:57;8.90;;;0.90;;
40649;SDS011;26342;42.826;23.992;2022-11-18T12:26:45;0.43;;;0.28;;
40649;SDS011;26342;42.826;23.992;2022-11-18T12:31:47;0.25;;;0.25;;
40649;SDS011;26342;42.826;23.992;2022-11-18T12:36:50;0.20;;;0.20;;
40649;SDS011;26342;42.826;23.992;2022-11-18T12:41:55;0.15;;;0.05;;
40649;SDS011;26342;42.826;23.992;2022-11-18T12:44:40;0.20;;;0.20;;
40649;SDS011;26342;42.826;23.992;2022-11-18T12:47:08;0.30;;;0.30;;
40649;SDS011;26342;42.826;23.992;2022-11-18T12:52:00;0.45;;;0.30;;
40649;SDS011;26342;42.826;23.992;2022-11-18T12:54:37;0.47;;;0.30;;
40649;SDS011;26342;42.826;23.992;2022-11-18T12:57:15;0.85;;;0.30;;
40649;SDS011;26342;42.826;23.992;2022-11-18T12:59:44;0.30;;;0.30;;
40649;SDS011;26342;42.826;23.992;2022-11-18T13:04:35;0.40;;;0.35;;
40649;SDS011;26342;42.826;23.992;2022-11-18T13:07:01;0.32;;;0.32;;
40649;SDS011;26342;42.826;23.992;2022-11-18T13:09:28;0.20;;;0.20;;
40649;SDS011;26342;42.826;23.992;2022-11-18T13:12:02;0.13;;;0.10;;
40649;SDS011;26342;42.826;23.992;2022-11-18T13:22:58;1.17;;;0.52;;
40649;SDS011;26342;42.826;23.992;2022-11-18T13:25:43;1.48;;;1.38;;
40649;SDS011;26342;42.826;23.992;2022-11-18T13:28:24;1.48;;;0.55;;
40649;SDS011;26342;42.826;23.992;2022-11-18T13:33:35;0.20;;;0.20;;
40649;SDS011;26342;42.826;23.992;2022-11-18T13:36:20;0.50;;;0.50;;
40649;SDS011;26342;42.826;23.992;2022-11-18T13:38:57;0.25;;;0.13;;
40649;SDS011;26342;42.826;23.992;2022-11-18T13:41:28;0.30;;;0.30;;
40649;SDS011;26342;42.826;23.992;2022-11-18T13:46:36;0.43;;;0.40;;
40649;SDS011;26342;42.826;23.992;2022-11-18T13:49:03;0.10;;;0.10;;
40649;SDS011;26342;42.826;23.992;2022-11-18T13:51:29;1.00;;;0.75;;
40649;SDS011;26342;42.826;23.992;2022-11-18T13:53:55;3.42;;;0.85;;
40649;SDS011;26342;42.826;23.992;2022-11-18T13:56:22;0.55;;;0.55;;
40649;SDS011;26342;42.826;23.992;2022-11-18T13:58:54;1.70;;;0.60;;
40649;SDS011;26342;42.826;23.992;2022-11-18T14:03:59;1.65;;;1.02;;
40649;SDS011;26342;42.826;23.992;2022-11-18T14:06:40;0.38;;;0.38;;
40649;SDS011;26342;42.826;23.992;2022-11-18T14:14:28;2.03;;;1.85;;
40649;SDS011;26342;42.826;23.992;2022-11-18T14:17:18;1.00;;;0.80;;
40649;SDS011;26342;42.826;23.992;2022-11-18T14:19:46;0.63;;;0.63;;
40649;SDS011;26342;42.826;23.992;2022-11-18T14:22:20;1.25;;;0.75;;
40649;SDS011;26342;42.826;23.992;2022-11-18T14:38:18;1.50;;;0.85;;
40649;SDS011;26342;42.826;23.992;2022-11-18T14:40:56;1.65;;;1.30;;
40649;SDS011;26342;42.826;23.992;2022-11-18T14:43:23;3.00;;;1.30;;
40649;SDS011;26342;42.826;23.992;2022-11-18T14:45:49;1.10;;;0.85;;
40649;SDS011;26342;42.826;23.992;2022-11-18T14:48:17;1.17;;;1.08;;
40649;SDS011;26342;42.826;23.992;2022-11-18T14:50:45;1.83;;;0.50;;
40649;SDS011;26342;42.826;23.992;2022-11-18T14:53:11;0.60;;;0.60;;
40649;SDS011;26342;42.826;23.992;2022-11-18T14:55:37;1.40;;;0.45;;
40649;SDS011;26342;42.826;23.992;2022-11-18T14:58:04;1.27;;;1.17;;
40649;SDS011;26342;42.826;23.992;2022-11-18T15:00:29;2.88;;;2.25;;
40649;SDS011;26342;42.826;23.992;2022-11-18T15:02:55;0.65;;;0.50;;
40649;SDS011;26342;42.826;23.992;2022-11-18T15:05:20;0.40;;;0.40;;
40649;SDS011;26342;42.826;23.992;2022-11-18T15:07:45;0.30;;;0.30;;
40649;SDS011;26342;42.826;23.992;2022-11-18T15:10:14;0.82;;;0.82;;
40649;SDS011;26342;42.826;23.992;2022-11-18T15:12:41;2.25;;;1.00;;
40649;SDS011;26342;42.826;23.992;2022-11-18T15:15:06;0.32;;;0.13;;
40649;SDS011;26342;42.826;23.992;2022-11-18T15:17:32;0.82;;;0.50;;
40649;SDS011;26342;42.826;23.992;2022-11-18T15:19:58;0.82;;;0.60;;
40649;SDS011;26342;42.826;23.992;2022-11-18T15:22:23;1.02;;;0.57;;
40649;SDS011;26342;42.826;23.992;2022-11-18T15:24:49;1.33;;;1.23;;
40649;SDS011;26342;42.826;23.992;2022-11-18T15:27:14;1.30;;;0.70;;
40649;SDS011;26342;42.826;23.992;2022-11-18T15:29:39;1.98;;;0.88;;
40649;SDS011;26342;42.826;23.992;2022-11-18T15:32:05;1.08;;;0.60;;
40649;SDS011;26342;42.826;23.992;2022-11-18T15:34:30;0.57;;;0.50;;
40649;SDS011;26342;42.826;23.992;2022-11-18T15:36:56;1.53;;;0.90;;
40649;SDS011;26342;42.826;23.992;2022-11-18T15:39:21;1.55;;;1.45;;
40649;SDS011;26342;42.826;23.992;2022-11-18T15:41:47;5.18;;;1.98;;
40649;SDS011;26342;42.826;23.992;2022-11-18T15:44:12;1.50;;;1.40;;
40649;SDS011;26342;42.826;23.992;2022-11-18T15:46:37;5.85;;;2.47;;
40649;SDS011;26342;42.826;23.992;2022-11-18T15:49:03;3.80;;;2.15;;
40649;SDS011;26342;42.826;23.992;2022-11-18T15:51:29;3.50;;;1.27;;
40649;SDS011;26342;42.826;23.992;2022-11-18T15:53:54;2.05;;;1.17;;
40649;SDS011;26342;42.826;23.992;2022-11-18T16:01:25;1.27;;;1.17;;
40649;SDS011;26342;42.826;23.992;2022-11-18T16:03:52;3.15;;;1.00;;
40649;SDS011;26342;42.826;23.992;2022-11-18T16:06:18;0.47;;;0.47;;
40649;SDS011;26342;42.826;23.992;2022-11-18T16:08:44;0.63;;;0.28;;
40649;SDS011;26342;42.826;23.992;2022-11-18T16:11:10;0.95;;;0.82;;
40649;SDS011;26342;42.826;23.992;2022-11-18T16:13:59;1.75;;;0.95;;
40649;SDS011;26342;42.826;23.992;2022-11-18T16:16:26;9.70;;;1.42;;
40649;SDS011;26342;42.826;23.992;2022-11-18T16:18:55;2.63;;;2.30;;
40649;SDS011;26342;42.826;23.992;2022-11-18T16:21:22;4.47;;;2.35;;
40649;SDS011;26342;42.826;23.992;2022-11-18T16:23:48;2.65;;;1.10;;
40649;SDS011;26342;42.826;23.992;2022-11-18T16:26:13;2.50;;;1.83;;
40649;SDS011;26342;42.826;23.992;2022-11-18T16:28:38;7.88;;;3.80;;
40649;SDS011;26342;42.826;23.992;2022-11-18T16:31:04;3.95;;;1.20;;
40649;SDS011;26342;42.826;23.992;2022-11-18T16:33:49;1.40;;;0.60;;
40649;SDS011;26342;42.826;23.992;2022-11-18T16:36:14;4.10;;;1.58;;
40649;SDS011;26342;42.826;23.992;2022-11-18T16:38:40;2.60;;;2.33;;
40649;SDS011;26342;42.826;23.992;2022-11-18T16:41:05;2.88;;;1.42;;
40649;SDS011;26342;42.826;23.992;2022-11-18T16:43:51;0.30;;;0.30;;
40649;SDS011;26342;42.826;23.992;2022-11-18T16:46:16;3.53;;;1.95;;
40649;SDS011;26342;42.826;23.992;2022-11-18T16:48:41;1.05;;;0.80;;
40649;SDS011;26342;42.826;23.992;2022-11-18T16:51:21;0.13;;;0.13;;
40649;SDS011;26342;42.826;23.992;2022-11-18T16:53:51;0.35;;;0.35;;
40649;SDS011;26342;42.826;23.992;2022-11-18T16:56:18;0.25;;;0.20;;
40649;SDS011;26342;42.826;23.992;2022-11-18T16:58:45;3.85;;;2.38;;
40649;SDS011;26342;42.826;23.992;2022-11-18T17:01:11;3.40;;;2.05;;
40649;SDS011;26342;42.826;23.992;2022-11-18T17:03:37;0.47;;;0.45;;
40649;SDS011;26342;42.826;23.992;2022-11-18T17:06:02;1.27;;;0.73;;
40649;SDS011;26342;42.826;23.992;2022-11-18T17:08:28;3.70;;;1.67;;
40649;SDS011;26342;42.826;23.992;2022-11-18T17:11:02;11.40;;;6.30;;
40649;SDS011;26342;42.826;23.992;2022-11-18T17:13:29;1.10;;;0.77;;
40649;SDS011;26342;42.826;23.992;2022-11-18T17:15:54;1.58;;;0.85;;
40649;SDS011;26342;42.826;23.992;2022-11-18T17:18:19;1.85;;;1.25;;